sensor_id;sensor_type;location;lat;lon;timestamp;P1;durP1;ratioP1;P2;durP2;ratioP2
20772;SDS011;10546;50.674;4.616;2023-02-12T08:21:24;54.03;;;26.50;;
20772;SDS011;10546;50.674;4.616;2023-02-12T08:23:55;54.07;;;27.20;;
20772;SDS011;10546;50.674;4.616;2023-02-12T08:26:23;55.97;;;26.43;;
20772;SDS011;10546;50.674;4.616;2023-02-12T08:28:53;51.47;;;27.53;;
20772;SDS011;10546;50.674;4.616;2023-02-12T08:31:25;55.23;;;27.37;;
20772;SDS011;10546;50.674;4.616;2023-02-12T08:33:53;53.40;;;26.83;;
20772;SDS011;10546;50.674;4.616;2023-02-12T08:36:20;51.60;;;26.17;;
20772;SDS011;10546;50.674;4.616;2023-02-12T08:38:48;49.80;;;26.47;;
20772;SDS011;10546;50.674;4.616;2023-02-12T08:41:15;51.37;;;25.50;;
20772;SDS011;10546;50.674;4.616;2023-02-12T08:43:42;49.97;;;26.17;;
20772;SDS011;10546;50.674;4.616;2023-02-12T08:46:09;52.53;;;27.50;;
20772;SDS011;10546;50.674;4.616;2023-02-12T08:48:40;56.20;;;26.37;;
20772;SDS011;10546;50.674;4.616;2023-02-12T08:53:34;57.33;;;27.63;;
20772;SDS011;10546;50.674;4.616;2023-02-12T08:56:00;53.27;;;27.87;;
20772;SDS011;10546;50.674;4.616;2023-02-12T08:58:26;57.23;;;28.50;;
20772;SDS011;10546;50.674;4.616;2023-02-12T09:00:52;57.20;;;27.80;;
20772;SDS011;10546;50.674;4.616;2023-02-12T09:03:19;54.33;;;27.67;;
20772;SDS011;10546;50.674;4.616;2023-02-12T09:05:44;53.67;;;26.27;;
20772;SDS011;10546;50.674;4.616;2023-02-12T09:08:10;52.73;;;26.63;;
20772;SDS011;10546;50.674;4.616;2023-02-12T09:10:39;53.80;;;27.43;;
20772;SDS011;10546;50.674;4.616;2023-02-12T09:13:07;51.73;;;27.57;;
20772;SDS011;10546;50.674;4.616;2023-02-12T09:15:37;51.50;;;25.93;;
20772;SDS011;10546;50.674;4.616;2023-02-12T09:18:03;54.87;;;28.03;;
20772;SDS011;10546;50.674;4.616;2023-02-12T09:20:29;60.10;;;27.53;;
20772;SDS011;10546;50.674;4.616;2023-02-12T09:22:59;57.13;;;27.60;;
20772;SDS011;10546;50.674;4.616;2023-02-12T09:25:25;59.07;;;28.63;;
20772;SDS011;10546;50.674;4.616;2023-02-12T09:27:50;59.53;;;28.50;;
20772;SDS011;10546;50.674;4.616;2023-02-12T09:30:16;57.27;;;28.40;;
20772;SDS011;10546;50.674;4.616;2023-02-12T09:32:42;58.37;;;27.83;;
20772;SDS011;10546;50.674;4.616;2023-02-12T09:35:08;61.73;;;27.23;;
20772;SDS011;10546;50.674;4.616;2023-02-12T09:37:36;65.40;;;29.67;;
20772;SDS011;10546;50.674;4.616;2023-02-12T09:40:10;62.27;;;29.63;;
20772;SDS011;10546;50.674;4.616;2023-02-12T09:45:54;61.07;;;28.63;;
20772;SDS011;10546;50.674;4.616;2023-02-12T09:48:35;58.63;;;27.87;;
20772;SDS011;10546;50.674;4.616;2023-02-12T09:51:10;55.70;;;27.47;;
20772;SDS011;10546;50.674;4.616;2023-02-12T09:53:38;54.67;;;27.57;;
20772;SDS011;10546;50.674;4.616;2023-02-12T09:56:13;57.23;;;27.53;;
20772;SDS011;10546;50.674;4.616;2023-02-12T09:58:51;55.13;;;27.60;;
20772;SDS011;10546;50.674;4.616;2023-02-12T10:01:18;56.37;;;26.93;;
20772;SDS011;10546;50.674;4.616;2023-02-12T10:03:46;56.50;;;27.97;;
20772;SDS011;10546;50.674;4.616;2023-02-12T10:17:02;58.07;;;27.03;;
20772;SDS011;10546;50.674;4.616;2023-02-12T10:25:47;58.50;;;27.93;;
20772;SDS011;10546;50.674;4.616;2023-02-12T10:28:18;60.23;;;28.60;;
20772;SDS011;10546;50.674;4.616;2023-02-12T10:30:53;59.90;;;28.57;;
20772;SDS011;10546;50.674;4.616;2023-02-12T10:33:26;59.13;;;29.00;;
20772;SDS011;10546;50.674;4.616;2023-02-12T10:36:02;58.97;;;29.07;;
20772;SDS011;10546;50.674;4.616;2023-02-12T10:38:38;60.87;;;28.60;;
20772;SDS011;10546;50.674;4.616;2023-02-12T10:41:06;60.60;;;29.47;;
20772;SDS011;10546;50.674;4.616;2023-02-12T10:43:36;59.10;;;28.53;;
20772;SDS011;10546;50.674;4.616;2023-02-12T10:46:02;53.67;;;26.53;;
20772;SDS011;10546;50.674;4.616;2023-02-12T10:48:32;60.50;;;28.07;;
20772;SDS011;10546;50.674;4.616;2023-02-12T10:51:13;56.47;;;27.60;;
20772;SDS011;10546;50.674;4.616;2023-02-12T10:54:29;55.17;;;27.50;;
20772;SDS011;10546;50.674;4.616;2023-02-12T10:57:05;54.23;;;27.03;;
20772;SDS011;10546;50.674;4.616;2023-02-12T10:59:38;60.87;;;28.67;;
20772;SDS011;10546;50.674;4.616;2023-02-12T11:02:14;57.87;;;27.93;;
20772;SDS011;10546;50.674;4.616;2023-02-12T11:04:44;58.67;;;27.93;;
20772;SDS011;10546;50.674;4.616;2023-02-12T11:07:09;62.10;;;29.70;;
20772;SDS011;10546;50.674;4.616;2023-02-12T11:09:36;60.20;;;29.10;;
20772;SDS011;10546;50.674;4.616;2023-02-12T11:14:53;62.73;;;29.67;;
20772;SDS011;10546;50.674;4.616;2023-02-12T11:17:24;58.63;;;29.70;;
20772;SDS011;10546;50.674;4.616;2023-02-12T11:22:49;62.77;;;28.03;;
20772;SDS011;10546;50.674;4.616;2023-02-12T11:25:16;63.17;;;29.40;;
20772;SDS011;10546;50.674;4.616;2023-02-12T11:27:41;64.17;;;29.47;;
20772;SDS011;10546;50.674;4.616;2023-02-12T11:32:41;66.10;;;30.97;;
20772;SDS011;10546;50.674;4.616;2023-02-12T11:35:12;68.60;;;31.40;;
20772;SDS011;10546;50.674;4.616;2023-02-12T11:37:42;68.07;;;31.03;;
20772;SDS011;10546;50.674;4.616;2023-02-12T11:40:15;63.20;;;30.10;;
20772;SDS011;10546;50.674;4.616;2023-02-12T11:42:46;67.83;;;30.23;;
20772;SDS011;10546;50.674;4.616;2023-02-12T11:45:19;61.30;;;28.53;;
20772;SDS011;10546;50.674;4.616;2023-02-12T11:47:48;66.33;;;29.20;;
20772;SDS011;10546;50.674;4.616;2023-02-12T11:50:30;67.47;;;29.40;;
20772;SDS011;10546;50.674;4.616;2023-02-12T11:53:04;58.30;;;28.60;;
20772;SDS011;10546;50.674;4.616;2023-02-12T11:55:37;62.80;;;28.10;;
20772;SDS011;10546;50.674;4.616;2023-02-12T11:58:21;61.37;;;28.77;;
20772;SDS011;10546;50.674;4.616;2023-02-12T12:03:33;53.27;;;25.17;;
20772;SDS011;10546;50.674;4.616;2023-02-12T12:11:58;63.43;;;29.93;;
20772;SDS011;10546;50.674;4.616;2023-02-12T12:14:58;64.70;;;29.00;;
20772;SDS011;10546;50.674;4.616;2023-02-12T12:21:10;63.43;;;27.77;;
20772;SDS011;10546;50.674;4.616;2023-02-12T12:23:44;62.57;;;28.73;;
20772;SDS011;10546;50.674;4.616;2023-02-12T12:26:21;57.83;;;27.17;;
20772;SDS011;10546;50.674;4.616;2023-02-12T12:31:46;60.43;;;26.70;;
20772;SDS011;10546;50.674;4.616;2023-02-12T12:34:22;63.23;;;28.17;;
20772;SDS011;10546;50.674;4.616;2023-02-12T12:45:19;59.07;;;26.40;;
20772;SDS011;10546;50.674;4.616;2023-02-12T12:48:16;63.77;;;28.10;;
20772;SDS011;10546;50.674;4.616;2023-02-12T12:56:40;64.03;;;29.43;;
20772;SDS011;10546;50.674;4.616;2023-02-12T13:10:44;71.47;;;31.57;;
20772;SDS011;10546;50.674;4.616;2023-02-12T13:13:20;69.63;;;31.43;;
20772;SDS011;10546;50.674;4.616;2023-02-12T13:24:33;75.13;;;33.97;;
20772;SDS011;10546;50.674;4.616;2023-02-12T13:27:40;79.23;;;33.20;;
20772;SDS011;10546;50.674;4.616;2023-02-12T13:32:40;69.67;;;33.23;;
20772;SDS011;10546;50.674;4.616;2023-02-12T13:35:20;73.17;;;33.60;;
20772;SDS011;10546;50.674;4.616;2023-02-12T13:37:52;77.40;;;33.80;;
20772;SDS011;10546;50.674;4.616;2023-02-12T13:40:20;77.87;;;33.40;;
20772;SDS011;10546;50.674;4.616;2023-02-12T13:53:50;78.33;;;34.90;;
20772;SDS011;10546;50.674;4.616;2023-02-12T14:02:24;82.23;;;35.17;;
20772;SDS011;10546;50.674;4.616;2023-02-12T14:07:49;69.03;;;30.97;;
20772;SDS011;10546;50.674;4.616;2023-02-12T14:10:21;73.13;;;32.77;;
20772;SDS011;10546;50.674;4.616;2023-02-12T14:12:49;69.13;;;30.97;;
20772;SDS011;10546;50.674;4.616;2023-02-12T14:15:35;64.47;;;29.37;;
20772;SDS011;10546;50.674;4.616;2023-02-12T14:20:47;61.20;;;27.57;;
20772;SDS011;10546;50.674;4.616;2023-02-12T14:23:33;65.60;;;26.57;;
20772;SDS011;10546;50.674;4.616;2023-02-12T14:28:48;55.77;;;24.87;;
20772;SDS011;10546;50.674;4.616;2023-02-12T14:41:44;43.97;;;19.90;;
20772;SDS011;10546;50.674;4.616;2023-02-12T14:46:42;53.23;;;24.10;;
20772;SDS011;10546;50.674;4.616;2023-02-12T14:55:02;57.30;;;25.83;;
20772;SDS011;10546;50.674;4.616;2023-02-12T14:57:35;63.10;;;27.07;;
20772;SDS011;10546;50.674;4.616;2023-02-12T15:07:53;66.13;;;29.53;;
20772;SDS011;10546;50.674;4.616;2023-02-12T15:10:23;70.53;;;30.33;;
20772;SDS011;10546;50.674;4.616;2023-02-12T15:21:15;69.07;;;30.00;;
20772;SDS011;10546;50.674;4.616;2023-02-12T15:23:48;63.47;;;29.23;;
20772;SDS011;10546;50.674;4.616;2023-02-12T15:26:26;65.50;;;29.33;;
20772;SDS011;10546;50.674;4.616;2023-02-12T15:28:54;69.03;;;30.33;;
20772;SDS011;10546;50.674;4.616;2023-02-12T15:31:22;69.97;;;31.50;;
20772;SDS011;10546;50.674;4.616;2023-02-12T15:33:51;70.63;;;30.23;;
20772;SDS011;10546;50.674;4.616;2023-02-12T15:36:21;69.87;;;30.40;;
20772;SDS011;10546;50.674;4.616;2023-02-12T15:39:13;68.40;;;29.67;;
20772;SDS011;10546;50.674;4.616;2023-02-12T15:41:41;75.63;;;30.97;;
20772;SDS011;10546;50.674;4.616;2023-02-12T15:47:01;70.13;;;30.80;;
20772;SDS011;10546;50.674;4.616;2023-02-12T15:49:38;75.43;;;32.10;;
20772;SDS011;10546;50.674;4.616;2023-02-12T15:52:19;70.83;;;31.67;;
20772;SDS011;10546;50.674;4.616;2023-02-12T15:54:57;66.87;;;30.93;;
20772;SDS011;10546;50.674;4.616;2023-02-12T15:57:23;67.63;;;29.97;;
20772;SDS011;10546;50.674;4.616;2023-02-12T15:59:54;72.50;;;30.90;;
20772;SDS011;10546;50.674;4.616;2023-02-12T16:02:26;72.30;;;33.17;;
20772;SDS011;10546;50.674;4.616;2023-02-12T16:04:55;71.70;;;33.60;;
20772;SDS011;10546;50.674;4.616;2023-02-12T16:07:22;73.03;;;33.80;;
20772;SDS011;10546;50.674;4.616;2023-02-12T16:09:50;73.03;;;31.60;;
20772;SDS011;10546;50.674;4.616;2023-02-12T16:12:18;70.77;;;30.93;;
20772;SDS011;10546;50.674;4.616;2023-02-12T16:14:47;72.63;;;32.50;;
20772;SDS011;10546;50.674;4.616;2023-02-12T16:22:41;75.53;;;33.13;;
20772;SDS011;10546;50.674;4.616;2023-02-12T16:25:15;78.37;;;33.73;;
20772;SDS011;10546;50.674;4.616;2023-02-12T16:27:57;79.33;;;33.93;;
20772;SDS011;10546;50.674;4.616;2023-02-12T16:30:25;76.17;;;35.13;;
20772;SDS011;10546;50.674;4.616;2023-02-12T16:32:55;81.93;;;34.90;;
20772;SDS011;10546;50.674;4.616;2023-02-12T16:37:49;76.90;;;34.30;;
20772;SDS011;10546;50.674;4.616;2023-02-12T16:40:21;76.53;;;35.50;;
20772;SDS011;10546;50.674;4.616;2023-02-12T16:47:51;80.67;;;34.50;;
20772;SDS011;10546;50.674;4.616;2023-02-12T16:50:31;77.13;;;34.77;;
20772;SDS011;10546;50.674;4.616;2023-02-12T16:53:00;81.77;;;35.97;;
20772;SDS011;10546;50.674;4.616;2023-02-12T16:55:28;83.20;;;37.17;;
20772;SDS011;10546;50.674;4.616;2023-02-12T16:57:54;86.63;;;37.63;;
20772;SDS011;10546;50.674;4.616;2023-02-12T17:00:19;81.17;;;37.33;;
20772;SDS011;10546;50.674;4.616;2023-02-12T17:02:46;80.87;;;37.53;;
20772;SDS011;10546;50.674;4.616;2023-02-12T17:05:13;87.30;;;37.00;;
20772;SDS011;10546;50.674;4.616;2023-02-12T17:07:41;84.23;;;36.67;;
20772;SDS011;10546;50.674;4.616;2023-02-12T17:10:10;82.20;;;36.50;;
20772;SDS011;10546;50.674;4.616;2023-02-12T17:12:47;80.93;;;36.10;;
20772;SDS011;10546;50.674;4.616;2023-02-12T17:15:24;79.40;;;35.77;;
20772;SDS011;10546;50.674;4.616;2023-02-12T17:17:57;82.73;;;35.83;;
20772;SDS011;10546;50.674;4.616;2023-02-12T17:20:23;80.70;;;35.47;;
20772;SDS011;10546;50.674;4.616;2023-02-12T17:22:52;81.23;;;36.10;;
20772;SDS011;10546;50.674;4.616;2023-02-12T17:25:21;84.57;;;37.20;;
20772;SDS011;10546;50.674;4.616;2023-02-12T17:27:47;85.30;;;42.67;;
20772;SDS011;10546;50.674;4.616;2023-02-12T17:30:16;82.57;;;37.70;;
20772;SDS011;10546;50.674;4.616;2023-02-12T17:32:45;89.57;;;42.67;;
20772;SDS011;10546;50.674;4.616;2023-02-12T17:35:11;79.60;;;35.97;;
20772;SDS011;10546;50.674;4.616;2023-02-12T17:37:37;81.90;;;36.37;;
20772;SDS011;10546;50.674;4.616;2023-02-12T17:40:03;86.70;;;35.17;;
20772;SDS011;10546;50.674;4.616;2023-02-12T17:42:30;77.77;;;34.33;;
20772;SDS011;10546;50.674;4.616;2023-02-12T17:44:56;76.83;;;35.23;;
20772;SDS011;10546;50.674;4.616;2023-02-12T17:47:22;78.20;;;35.57;;
20772;SDS011;10546;50.674;4.616;2023-02-12T17:49:47;80.17;;;37.20;;
20772;SDS011;10546;50.674;4.616;2023-02-12T17:52:13;72.70;;;33.80;;
20772;SDS011;10546;50.674;4.616;2023-02-12T17:54:38;75.67;;;34.80;;
20772;SDS011;10546;50.674;4.616;2023-02-12T17:57:04;83.07;;;34.13;;
20772;SDS011;10546;50.674;4.616;2023-02-12T17:59:30;79.47;;;34.13;;
20772;SDS011;10546;50.674;4.616;2023-02-12T18:01:55;73.47;;;33.23;;
20772;SDS011;10546;50.674;4.616;2023-02-12T18:04:21;76.87;;;34.13;;
20772;SDS011;10546;50.674;4.616;2023-02-12T18:06:47;73.83;;;34.13;;
20772;SDS011;10546;50.674;4.616;2023-02-12T18:09:12;78.13;;;35.17;;
20772;SDS011;10546;50.674;4.616;2023-02-12T18:11:38;83.87;;;34.87;;
20772;SDS011;10546;50.674;4.616;2023-02-12T18:14:06;79.10;;;34.30;;
20772;SDS011;10546;50.674;4.616;2023-02-12T18:16:32;83.97;;;36.47;;
20772;SDS011;10546;50.674;4.616;2023-02-12T18:18:59;79.23;;;35.60;;
20772;SDS011;10546;50.674;4.616;2023-02-12T18:21:28;79.67;;;35.33;;
20772;SDS011;10546;50.674;4.616;2023-02-12T18:23:54;77.13;;;34.60;;
20772;SDS011;10546;50.674;4.616;2023-02-12T18:26:20;84.77;;;35.83;;
20772;SDS011;10546;50.674;4.616;2023-02-12T18:28:46;81.60;;;36.77;;
20772;SDS011;10546;50.674;4.616;2023-02-12T18:31:12;82.47;;;35.80;;
20772;SDS011;10546;50.674;4.616;2023-02-12T18:33:38;77.77;;;34.80;;
20772;SDS011;10546;50.674;4.616;2023-02-12T18:36:06;81.27;;;35.67;;
20772;SDS011;10546;50.674;4.616;2023-02-12T18:38:34;75.37;;;35.00;;
20772;SDS011;10546;50.674;4.616;2023-02-12T18:41:09;75.40;;;33.73;;
20772;SDS011;10546;50.674;4.616;2023-02-12T18:43:41;77.70;;;34.37;;
20772;SDS011;10546;50.674;4.616;2023-02-12T18:46:11;72.70;;;34.13;;
20772;SDS011;10546;50.674;4.616;2023-02-12T18:48:39;74.13;;;32.97;;
20772;SDS011;10546;50.674;4.616;2023-02-12T18:51:05;76.40;;;34.20;;
20772;SDS011;10546;50.674;4.616;2023-02-12T18:53:32;72.93;;;33.67;;
20772;SDS011;10546;50.674;4.616;2023-02-12T18:56:02;76.20;;;33.27;;
20772;SDS011;10546;50.674;4.616;2023-02-12T18:58:29;70.03;;;31.97;;
20772;SDS011;10546;50.674;4.616;2023-02-12T19:00:55;74.73;;;33.63;;
20772;SDS011;10546;50.674;4.616;2023-02-12T19:03:26;76.73;;;33.27;;
20772;SDS011;10546;50.674;4.616;2023-02-12T19:05:52;81.30;;;36.07;;
20772;SDS011;10546;50.674;4.616;2023-02-12T19:08:18;77.03;;;33.13;;
20772;SDS011;10546;50.674;4.616;2023-02-12T19:10:43;75.77;;;35.33;;
20772;SDS011;10546;50.674;4.616;2023-02-12T19:13:12;78.37;;;35.67;;
20772;SDS011;10546;50.674;4.616;2023-02-12T19:15:38;84.10;;;36.93;;
20772;SDS011;10546;50.674;4.616;2023-02-12T19:18:05;74.77;;;34.37;;
20772;SDS011;10546;50.674;4.616;2023-02-12T19:20:39;74.03;;;33.57;;
20772;SDS011;10546;50.674;4.616;2023-02-12T19:23:05;72.13;;;31.70;;
20772;SDS011;10546;50.674;4.616;2023-02-12T19:25:33;84.97;;;38.33;;
20772;SDS011;10546;50.674;4.616;2023-02-12T19:28:03;80.90;;;38.50;;
20772;SDS011;10546;50.674;4.616;2023-02-12T19:30:29;100.60;;;42.20;;
20772;SDS011;10546;50.674;4.616;2023-02-12T19:32:55;123.33;;;56.93;;
20772;SDS011;10546;50.674;4.616;2023-02-12T19:35:20;93.60;;;43.30;;
20772;SDS011;10546;50.674;4.616;2023-02-12T19:37:50;92.23;;;43.13;;
20772;SDS011;10546;50.674;4.616;2023-02-12T19:40:18;77.80;;;36.57;;
20772;SDS011;10546;50.674;4.616;2023-02-12T19:42:44;74.23;;;31.93;;
20772;SDS011;10546;50.674;4.616;2023-02-12T19:45:11;77.73;;;34.13;;
20772;SDS011;10546;50.674;4.616;2023-02-12T19:47:45;77.77;;;35.07;;
20772;SDS011;10546;50.674;4.616;2023-02-12T19:50:11;104.70;;;48.93;;
20772;SDS011;10546;50.674;4.616;2023-02-12T19:52:37;88.53;;;39.50;;
20772;SDS011;10546;50.674;4.616;2023-02-12T19:55:03;92.97;;;42.30;;
20772;SDS011;10546;50.674;4.616;2023-02-12T19:57:29;92.53;;;42.97;;
20772;SDS011;10546;50.674;4.616;2023-02-12T19:59:55;97.80;;;41.17;;
20772;SDS011;10546;50.674;4.616;2023-02-12T20:02:21;95.37;;;44.37;;
20772;SDS011;10546;50.674;4.616;2023-02-12T20:04:46;104.80;;;42.03;;
20772;SDS011;10546;50.674;4.616;2023-02-12T20:07:12;88.30;;;38.23;;
20772;SDS011;10546;50.674;4.616;2023-02-12T20:09:38;98.23;;;40.70;;
20772;SDS011;10546;50.674;4.616;2023-02-12T20:12:04;102.00;;;44.90;;
20772;SDS011;10546;50.674;4.616;2023-02-12T20:14:30;90.93;;;39.77;;
20772;SDS011;10546;50.674;4.616;2023-02-12T20:16:56;95.30;;;39.50;;
20772;SDS011;10546;50.674;4.616;2023-02-12T20:19:26;99.17;;;42.80;;
20772;SDS011;10546;50.674;4.616;2023-02-12T20:21:54;90.37;;;39.40;;
20772;SDS011;10546;50.674;4.616;2023-02-12T20:24:22;98.43;;;41.53;;
20772;SDS011;10546;50.674;4.616;2023-02-12T20:26:52;101.70;;;41.60;;
20772;SDS011;10546;50.674;4.616;2023-02-12T20:29:19;99.67;;;41.77;;
20772;SDS011;10546;50.674;4.616;2023-02-12T20:31:45;97.73;;;42.80;;
20772;SDS011;10546;50.674;4.616;2023-02-12T20:34:12;99.93;;;39.23;;
20772;SDS011;10546;50.674;4.616;2023-02-12T20:36:40;101.60;;;42.40;;
20772;SDS011;10546;50.674;4.616;2023-02-12T20:39:08;95.20;;;41.87;;
20772;SDS011;10546;50.674;4.616;2023-02-12T20:41:37;150.17;;;67.27;;
20772;SDS011;10546;50.674;4.616;2023-02-12T20:44:04;124.13;;;51.67;;
20772;SDS011;10546;50.674;4.616;2023-02-12T20:46:31;100.17;;;43.57;;
20772;SDS011;10546;50.674;4.616;2023-02-12T20:49:00;104.10;;;42.83;;
20772;SDS011;10546;50.674;4.616;2023-02-12T20:51:26;95.93;;;39.90;;
20772;SDS011;10546;50.674;4.616;2023-02-12T20:53:52;102.33;;;39.13;;
20772;SDS011;10546;50.674;4.616;2023-02-12T20:56:23;97.87;;;35.80;;
20772;SDS011;10546;50.674;4.616;2023-02-12T20:58:50;107.00;;;41.20;;
20772;SDS011;10546;50.674;4.616;2023-02-12T21:01:17;107.93;;;44.80;;
20772;SDS011;10546;50.674;4.616;2023-02-12T21:03:46;107.83;;;44.23;;
20772;SDS011;10546;50.674;4.616;2023-02-12T21:06:13;104.40;;;41.73;;
20772;SDS011;10546;50.674;4.616;2023-02-12T21:08:39;103.60;;;44.07;;
20772;SDS011;10546;50.674;4.616;2023-02-12T21:13:38;104.50;;;42.63;;
20772;SDS011;10546;50.674;4.616;2023-02-12T21:16:20;100.93;;;40.13;;
20772;SDS011;10546;50.674;4.616;2023-02-12T21:18:48;107.63;;;42.27;;
20772;SDS011;10546;50.674;4.616;2023-02-12T21:21:16;105.77;;;41.03;;
20772;SDS011;10546;50.674;4.616;2023-02-12T21:23:43;106.10;;;42.57;;
20772;SDS011;10546;50.674;4.616;2023-02-12T21:26:10;105.20;;;40.90;;
20772;SDS011;10546;50.674;4.616;2023-02-12T21:28:37;116.60;;;43.13;;
20772;SDS011;10546;50.674;4.616;2023-02-12T21:31:10;114.73;;;43.60;;
20772;SDS011;10546;50.674;4.616;2023-02-12T21:33:36;113.60;;;42.17;;
20772;SDS011;10546;50.674;4.616;2023-02-12T21:36:04;122.90;;;45.20;;
20772;SDS011;10546;50.674;4.616;2023-02-12T21:38:31;120.53;;;43.97;;
20772;SDS011;10546;50.674;4.616;2023-02-12T21:41:04;109.47;;;42.57;;
20772;SDS011;10546;50.674;4.616;2023-02-12T21:43:34;112.23;;;44.07;;
20772;SDS011;10546;50.674;4.616;2023-02-12T21:46:00;115.07;;;41.90;;
20772;SDS011;10546;50.674;4.616;2023-02-12T21:48:26;123.33;;;43.13;;
20772;SDS011;10546;50.674;4.616;2023-02-12T21:50:52;118.63;;;43.53;;
20772;SDS011;10546;50.674;4.616;2023-02-12T21:53:17;121.00;;;40.87;;
20772;SDS011;10546;50.674;4.616;2023-02-12T21:55:43;115.27;;;41.40;;
20772;SDS011;10546;50.674;4.616;2023-02-12T21:58:11;109.80;;;39.40;;
20772;SDS011;10546;50.674;4.616;2023-02-12T22:00:37;123.87;;;42.73;;
20772;SDS011;10546;50.674;4.616;2023-02-12T22:03:03;128.17;;;40.00;;
20772;SDS011;10546;50.674;4.616;2023-02-12T22:05:30;98.53;;;38.53;;
20772;SDS011;10546;50.674;4.616;2023-02-12T22:07:56;110.70;;;40.20;;
20772;SDS011;10546;50.674;4.616;2023-02-12T22:10:22;125.50;;;41.37;;
20772;SDS011;10546;50.674;4.616;2023-02-12T22:12:48;108.63;;;41.33;;
20772;SDS011;10546;50.674;4.616;2023-02-12T22:15:14;107.47;;;39.03;;
20772;SDS011;10546;50.674;4.616;2023-02-12T22:17:39;115.00;;;40.30;;
20772;SDS011;10546;50.674;4.616;2023-02-12T22:20:05;113.80;;;38.83;;
20772;SDS011;10546;50.674;4.616;2023-02-12T22:22:31;113.00;;;42.03;;
20772;SDS011;10546;50.674;4.616;2023-02-12T22:24:57;129.70;;;42.47;;
20772;SDS011;10546;50.674;4.616;2023-02-12T22:27:23;116.33;;;41.53;;
20772;SDS011;10546;50.674;4.616;2023-02-12T22:29:48;118.47;;;42.17;;
20772;SDS011;10546;50.674;4.616;2023-02-12T22:32:14;117.07;;;40.53;;
20772;SDS011;10546;50.674;4.616;2023-02-12T22:34:40;120.40;;;41.47;;
20772;SDS011;10546;50.674;4.616;2023-02-12T22:37:05;127.20;;;41.87;;
20772;SDS011;10546;50.674;4.616;2023-02-12T22:39:31;123.43;;;42.80;;
20772;SDS011;10546;50.674;4.616;2023-02-12T22:41:56;130.20;;;43.07;;
20772;SDS011;10546;50.674;4.616;2023-02-12T22:44:22;123.37;;;41.87;;
20772;SDS011;10546;50.674;4.616;2023-02-12T22:46:48;129.53;;;43.83;;
